sensor_id;sensor_type;location;lat;lon;timestamp;P1;durP1;ratioP1;P2;durP2;ratioP2
14394;SDS011;7282;49.204;10.652;2022-10-23T00:00:15;5.67;;;5.17;;
14394;SDS011;7282;49.204;10.652;2022-10-23T00:02:42;7.47;;;5.57;;
14394;SDS011;7282;49.204;10.652;2022-10-23T00:05:08;6.70;;;6.03;;
14394;SDS011;7282;49.204;10.652;2022-10-23T00:07:35;6.60;;;6.00;;
14394;SDS011;7282;49.204;10.652;2022-10-23T00:10:02;6.97;;;5.50;;
14394;SDS011;7282;49.204;10.652;2022-10-23T00:12:28;6.00;;;5.50;;
14394;SDS011;7282;49.204;10.652;2022-10-23T00:14:55;6.80;;;5.87;;
14394;SDS011;7282;49.204;10.652;2022-10-23T00:17:22;7.80;;;5.87;;
14394;SDS011;7282;49.204;10.652;2022-10-23T00:19:49;6.60;;;6.00;;
14394;SDS011;7282;49.204;10.652;2022-10-23T00:22:15;9.17;;;7.47;;
14394;SDS011;7282;49.204;10.652;2022-10-23T00:24:42;6.67;;;6.07;;
14394;SDS011;7282;49.204;10.652;2022-10-23T00:27:09;7.20;;;5.93;;
14394;SDS011;7282;49.204;10.652;2022-10-23T00:29:35;7.77;;;6.63;;
14394;SDS011;7282;49.204;10.652;2022-10-23T00:32:02;7.10;;;6.40;;
14394;SDS011;7282;49.204;10.652;2022-10-23T00:34:29;8.40;;;6.40;;
14394;SDS011;7282;49.204;10.652;2022-10-23T00:36:55;7.10;;;6.43;;
14394;SDS011;7282;49.204;10.652;2022-10-23T00:39:22;9.47;;;7.10;;
14394;SDS011;7282;49.204;10.652;2022-10-23T00:41:49;7.50;;;6.70;;
14394;SDS011;7282;49.204;10.652;2022-10-23T00:46:47;4.83;;;4.40;;
14394;SDS011;7282;49.204;10.652;2022-10-23T00:49:14;6.30;;;5.70;;
14394;SDS011;7282;49.204;10.652;2022-10-23T00:51:46;5.83;;;5.27;;
14394;SDS011;7282;49.204;10.652;2022-10-23T00:54:12;7.60;;;6.87;;
14394;SDS011;7282;49.204;10.652;2022-10-23T00:56:40;6.30;;;5.70;;
14394;SDS011;7282;49.204;10.652;2022-10-23T00:59:07;6.73;;;6.07;;
14394;SDS011;7282;49.204;10.652;2022-10-23T01:01:34;7.47;;;6.77;;
14394;SDS011;7282;49.204;10.652;2022-10-23T01:04:02;7.83;;;7.07;;
14394;SDS011;7282;49.204;10.652;2022-10-23T01:06:34;7.50;;;6.80;;
14394;SDS011;7282;49.204;10.652;2022-10-23T01:14:06;5.63;;;4.90;;
14394;SDS011;7282;49.204;10.652;2022-10-23T01:19:36;5.47;;;4.97;;
14394;SDS011;7282;49.204;10.652;2022-10-23T01:21:58;5.03;;;4.30;;
14394;SDS011;7282;49.204;10.652;2022-10-23T01:24:26;4.70;;;4.23;;
14394;SDS011;7282;49.204;10.652;2022-10-23T01:26:56;4.20;;;3.90;;
14394;SDS011;7282;49.204;10.652;2022-10-23T01:29:29;4.93;;;4.53;;
14394;SDS011;7282;49.204;10.652;2022-10-23T01:31:57;4.80;;;4.40;;
14394;SDS011;7282;49.204;10.652;2022-10-23T01:34:31;4.27;;;3.93;;
14394;SDS011;7282;49.204;10.652;2022-10-23T01:36:54;3.10;;;2.90;;
14394;SDS011;7282;49.204;10.652;2022-10-23T01:39:26;3.40;;;3.10;;
14394;SDS011;7282;49.204;10.652;2022-10-23T01:41:57;3.63;;;3.23;;
14394;SDS011;7282;49.204;10.652;2022-10-23T01:44:26;4.37;;;4.00;;
14394;SDS011;7282;49.204;10.652;2022-10-23T01:46:53;5.00;;;4.57;;
14394;SDS011;7282;49.204;10.652;2022-10-23T01:49:23;4.83;;;4.43;;
14394;SDS011;7282;49.204;10.652;2022-10-23T01:51:51;7.00;;;6.30;;
14394;SDS011;7282;49.204;10.652;2022-10-23T01:54:18;5.77;;;5.23;;
14394;SDS011;7282;49.204;10.652;2022-10-23T01:56:47;8.70;;;6.80;;
14394;SDS011;7282;49.204;10.652;2022-10-23T01:59:20;8.47;;;7.37;;
14394;SDS011;7282;49.204;10.652;2022-10-23T02:01:46;7.20;;;6.60;;
14394;SDS011;7282;49.204;10.652;2022-10-23T02:04:16;5.83;;;5.23;;
14394;SDS011;7282;49.204;10.652;2022-10-23T02:06:43;5.83;;;4.47;;
14394;SDS011;7282;49.204;10.652;2022-10-23T02:09:09;4.70;;;4.30;;
14394;SDS011;7282;49.204;10.652;2022-10-23T02:11:38;3.77;;;3.47;;
14394;SDS011;7282;49.204;10.652;2022-10-23T02:14:12;4.77;;;4.37;;
14394;SDS011;7282;49.204;10.652;2022-10-23T02:16:40;4.10;;;3.80;;
14394;SDS011;7282;49.204;10.652;2022-10-23T02:19:23;4.30;;;3.90;;
14394;SDS011;7282;49.204;10.652;2022-10-23T02:21:53;6.17;;;5.57;;
14394;SDS011;7282;49.204;10.652;2022-10-23T02:24:24;6.80;;;6.20;;
14394;SDS011;7282;49.204;10.652;2022-10-23T02:26:50;6.23;;;5.70;;
14394;SDS011;7282;49.204;10.652;2022-10-23T02:29:18;5.27;;;4.77;;
14394;SDS011;7282;49.204;10.652;2022-10-23T02:31:45;3.70;;;3.40;;
14394;SDS011;7282;49.204;10.652;2022-10-23T02:34:12;3.87;;;3.53;;
14394;SDS011;7282;49.204;10.652;2022-10-23T02:36:39;4.47;;;4.07;;
14394;SDS011;7282;49.204;10.652;2022-10-23T02:39:06;4.13;;;3.83;;
14394;SDS011;7282;49.204;10.652;2022-10-23T02:41:55;5.33;;;4.83;;
14394;SDS011;7282;49.204;10.652;2022-10-23T02:44:16;6.40;;;5.80;;
14394;SDS011;7282;49.204;10.652;2022-10-23T02:49:30;5.30;;;4.80;;
14394;SDS011;7282;49.204;10.652;2022-10-23T02:52:00;5.80;;;4.83;;
14394;SDS011;7282;49.204;10.652;2022-10-23T02:54:30;5.90;;;5.33;;
14394;SDS011;7282;49.204;10.652;2022-10-23T02:57:00;25.77;;;6.70;;
14394;SDS011;7282;49.204;10.652;2022-10-23T02:59:42;4.80;;;4.40;;
14394;SDS011;7282;49.204;10.652;2022-10-23T03:02:17;5.03;;;4.63;;
14394;SDS011;7282;49.204;10.652;2022-10-23T03:04:43;4.60;;;4.20;;
14394;SDS011;7282;49.204;10.652;2022-10-23T03:07:10;6.37;;;5.77;;
14394;SDS011;7282;49.204;10.652;2022-10-23T03:09:38;6.13;;;5.60;;
14394;SDS011;7282;49.204;10.652;2022-10-23T03:12:04;5.90;;;5.40;;
14394;SDS011;7282;49.204;10.652;2022-10-23T03:14:31;7.53;;;6.80;;
14394;SDS011;7282;49.204;10.652;2022-10-23T03:16:58;6.90;;;6.30;;
14394;SDS011;7282;49.204;10.652;2022-10-23T03:19:24;5.87;;;5.37;;
14394;SDS011;7282;49.204;10.652;2022-10-23T03:21:51;4.40;;;4.10;;
14394;SDS011;7282;49.204;10.652;2022-10-23T03:24:18;5.20;;;4.70;;
14394;SDS011;7282;49.204;10.652;2022-10-23T03:26:45;6.30;;;5.50;;
14394;SDS011;7282;49.204;10.652;2022-10-23T03:29:11;5.90;;;5.30;;
14394;SDS011;7282;49.204;10.652;2022-10-23T03:31:38;6.37;;;5.77;;
14394;SDS011;7282;49.204;10.652;2022-10-23T03:34:05;7.07;;;6.23;;
14394;SDS011;7282;49.204;10.652;2022-10-23T03:36:33;7.60;;;6.13;;
14394;SDS011;7282;49.204;10.652;2022-10-23T03:39:00;6.50;;;5.90;;
14394;SDS011;7282;49.204;10.652;2022-10-23T03:41:27;7.53;;;6.83;;
14394;SDS011;7282;49.204;10.652;2022-10-23T03:43:53;7.03;;;6.37;;
14394;SDS011;7282;49.204;10.652;2022-10-23T03:46:20;8.33;;;7.53;;
14394;SDS011;7282;49.204;10.652;2022-10-23T03:48:47;7.57;;;6.87;;
14394;SDS011;7282;49.204;10.652;2022-10-23T03:51:13;8.80;;;7.30;;
14394;SDS011;7282;49.204;10.652;2022-10-23T03:53:40;8.17;;;7.17;;
14394;SDS011;7282;49.204;10.652;2022-10-23T03:56:07;7.20;;;6.43;;
14394;SDS011;7282;49.204;10.652;2022-10-23T03:58:33;7.30;;;6.67;;
14394;SDS011;7282;49.204;10.652;2022-10-23T04:01:00;6.37;;;5.77;;
14394;SDS011;7282;49.204;10.652;2022-10-23T04:03:27;6.70;;;6.10;;
14394;SDS011;7282;49.204;10.652;2022-10-23T04:05:53;6.80;;;6.20;;
14394;SDS011;7282;49.204;10.652;2022-10-23T04:08:20;6.90;;;6.20;;
14394;SDS011;7282;49.204;10.652;2022-10-23T04:10:47;7.17;;;6.40;;
14394;SDS011;7282;49.204;10.652;2022-10-23T04:13:14;8.07;;;7.37;;
14394;SDS011;7282;49.204;10.652;2022-10-23T04:15:46;6.83;;;6.33;;
14394;SDS011;7282;49.204;10.652;2022-10-23T04:18:09;7.73;;;6.73;;
14394;SDS011;7282;49.204;10.652;2022-10-23T04:20:36;8.23;;;7.50;;
14394;SDS011;7282;49.204;10.652;2022-10-23T04:23:02;6.80;;;6.20;;
14394;SDS011;7282;49.204;10.652;2022-10-23T04:25:29;5.63;;;4.97;;
14394;SDS011;7282;49.204;10.652;2022-10-23T04:27:56;4.77;;;4.37;;
14394;SDS011;7282;49.204;10.652;2022-10-23T04:30:22;5.60;;;4.90;;
14394;SDS011;7282;49.204;10.652;2022-10-23T04:32:49;7.57;;;6.30;;
14394;SDS011;7282;49.204;10.652;2022-10-23T04:35:17;8.60;;;6.93;;
14394;SDS011;7282;49.204;10.652;2022-10-23T04:37:44;8.13;;;7.37;;
14394;SDS011;7282;49.204;10.652;2022-10-23T04:40:10;6.00;;;5.50;;
14394;SDS011;7282;49.204;10.652;2022-10-23T04:42:37;5.80;;;5.07;;
14394;SDS011;7282;49.204;10.652;2022-10-23T04:45:04;7.50;;;6.20;;
14394;SDS011;7282;49.204;10.652;2022-10-23T04:47:31;4.80;;;4.40;;
14394;SDS011;7282;49.204;10.652;2022-10-23T04:49:57;4.33;;;3.60;;
14394;SDS011;7282;49.204;10.652;2022-10-23T04:52:24;4.37;;;3.97;;
14394;SDS011;7282;49.204;10.652;2022-10-23T04:54:51;4.03;;;3.73;;
14394;SDS011;7282;49.204;10.652;2022-10-23T04:57:17;5.37;;;4.87;;
14394;SDS011;7282;49.204;10.652;2022-10-23T04:59:44;6.37;;;5.77;;
14394;SDS011;7282;49.204;10.652;2022-10-23T05:02:11;7.57;;;5.93;;
14394;SDS011;7282;49.204;10.652;2022-10-23T05:04:39;6.27;;;5.70;;
14394;SDS011;7282;49.204;10.652;2022-10-23T05:07:06;5.50;;;5.00;;
14394;SDS011;7282;49.204;10.652;2022-10-23T05:09:33;6.17;;;5.67;;
14394;SDS011;7282;49.204;10.652;2022-10-23T05:12:00;4.93;;;4.53;;
14394;SDS011;7282;49.204;10.652;2022-10-23T05:14:26;5.70;;;5.20;;
14394;SDS011;7282;49.204;10.652;2022-10-23T05:16:59;5.50;;;5.00;;
14394;SDS011;7282;49.204;10.652;2022-10-23T05:19:29;5.97;;;5.33;;
14394;SDS011;7282;49.204;10.652;2022-10-23T05:21:56;4.70;;;4.30;;
14394;SDS011;7282;49.204;10.652;2022-10-23T05:24:24;4.00;;;3.70;;
14394;SDS011;7282;49.204;10.652;2022-10-23T05:26:51;4.40;;;4.00;;
14394;SDS011;7282;49.204;10.652;2022-10-23T05:29:18;5.10;;;4.50;;
14394;SDS011;7282;49.204;10.652;2022-10-23T05:31:45;7.27;;;6.17;;
14394;SDS011;7282;49.204;10.652;2022-10-23T05:34:12;6.57;;;6.00;;
14394;SDS011;7282;49.204;10.652;2022-10-23T05:36:40;6.17;;;5.67;;
14394;SDS011;7282;49.204;10.652;2022-10-23T05:39:07;6.43;;;5.80;;
14394;SDS011;7282;49.204;10.652;2022-10-23T05:41:34;8.23;;;6.67;;
14394;SDS011;7282;49.204;10.652;2022-10-23T05:44:00;8.20;;;5.47;;
14394;SDS011;7282;49.204;10.652;2022-10-23T05:46:27;13.93;;;5.17;;
14394;SDS011;7282;49.204;10.652;2022-10-23T05:48:54;3.80;;;3.50;;
14394;SDS011;7282;49.204;10.652;2022-10-23T05:51:20;8.30;;;4.53;;
14394;SDS011;7282;49.204;10.652;2022-10-23T05:53:48;4.97;;;4.47;;
14394;SDS011;7282;49.204;10.652;2022-10-23T05:56:15;5.67;;;5.17;;
14394;SDS011;7282;49.204;10.652;2022-10-23T05:58:41;6.23;;;5.00;;
14394;SDS011;7282;49.204;10.652;2022-10-23T06:01:09;5.43;;;5.00;;
14394;SDS011;7282;49.204;10.652;2022-10-23T06:03:36;6.03;;;5.43;;
14394;SDS011;7282;49.204;10.652;2022-10-23T06:06:03;4.63;;;4.23;;
14394;SDS011;7282;49.204;10.652;2022-10-23T06:08:30;4.57;;;4.17;;
14394;SDS011;7282;49.204;10.652;2022-10-23T06:10:57;4.60;;;4.20;;
14394;SDS011;7282;49.204;10.652;2022-10-23T06:13:24;4.67;;;4.27;;
14394;SDS011;7282;49.204;10.652;2022-10-23T06:15:51;5.57;;;4.40;;
14394;SDS011;7282;49.204;10.652;2022-10-23T06:18:17;4.80;;;4.23;;
14394;SDS011;7282;49.204;10.652;2022-10-23T06:20:44;4.90;;;4.50;;
14394;SDS011;7282;49.204;10.652;2022-10-23T06:23:11;5.47;;;4.97;;
14394;SDS011;7282;49.204;10.652;2022-10-23T06:25:37;5.97;;;5.47;;
14394;SDS011;7282;49.204;10.652;2022-10-23T06:28:04;6.03;;;5.53;;
14394;SDS011;7282;49.204;10.652;2022-10-23T06:30:31;8.07;;;6.03;;
14394;SDS011;7282;49.204;10.652;2022-10-23T06:32:57;7.63;;;5.63;;
14394;SDS011;7282;49.204;10.652;2022-10-23T06:35:24;7.70;;;6.20;;
14394;SDS011;7282;49.204;10.652;2022-10-23T06:37:51;9.37;;;7.00;;
14394;SDS011;7282;49.204;10.652;2022-10-23T06:40:17;8.23;;;6.90;;
14394;SDS011;7282;49.204;10.652;2022-10-23T06:42:44;7.40;;;6.70;;
14394;SDS011;7282;49.204;10.652;2022-10-23T06:45:11;7.43;;;6.73;;
14394;SDS011;7282;49.204;10.652;2022-10-23T06:47:37;7.23;;;6.53;;
14394;SDS011;7282;49.204;10.652;2022-10-23T06:50:04;7.10;;;6.40;;
14394;SDS011;7282;49.204;10.652;2022-10-23T06:52:31;8.03;;;7.33;;
14394;SDS011;7282;49.204;10.652;2022-10-23T06:54:58;8.50;;;7.43;;
14394;SDS011;7282;49.204;10.652;2022-10-23T06:57:24;9.17;;;8.27;;
14394;SDS011;7282;49.204;10.652;2022-10-23T06:59:51;8.70;;;7.60;;
14394;SDS011;7282;49.204;10.652;2022-10-23T07:02:18;8.80;;;7.90;;
14394;SDS011;7282;49.204;10.652;2022-10-23T07:04:44;10.30;;;7.83;;
14394;SDS011;7282;49.204;10.652;2022-10-23T07:07:11;8.37;;;7.20;;
14394;SDS011;7282;49.204;10.652;2022-10-23T07:09:38;9.40;;;8.13;;
14394;SDS011;7282;49.204;10.652;2022-10-23T07:12:04;9.83;;;8.83;;
14394;SDS011;7282;49.204;10.652;2022-10-23T07:14:31;9.80;;;8.17;;
14394;SDS011;7282;49.204;10.652;2022-10-23T07:16:58;8.70;;;7.80;;
14394;SDS011;7282;49.204;10.652;2022-10-23T07:19:25;8.37;;;7.50;;
14394;SDS011;7282;49.204;10.652;2022-10-23T07:21:51;8.17;;;7.47;;
14394;SDS011;7282;49.204;10.652;2022-10-23T07:24:18;8.63;;;7.87;;
14394;SDS011;7282;49.204;10.652;2022-10-23T07:26:45;8.87;;;7.97;;
14394;SDS011;7282;49.204;10.652;2022-10-23T07:29:12;8.43;;;7.63;;
14394;SDS011;7282;49.204;10.652;2022-10-23T07:31:38;7.23;;;6.57;;
14394;SDS011;7282;49.204;10.652;2022-10-23T07:34:05;7.67;;;7.07;;
14394;SDS011;7282;49.204;10.652;2022-10-23T07:36:32;7.67;;;6.87;;
14394;SDS011;7282;49.204;10.652;2022-10-23T07:38:58;6.80;;;6.17;;
14394;SDS011;7282;49.204;10.652;2022-10-23T07:41:25;7.10;;;6.50;;
14394;SDS011;7282;49.204;10.652;2022-10-23T07:43:52;7.20;;;6.50;;
14394;SDS011;7282;49.204;10.652;2022-10-23T07:46:19;6.17;;;5.67;;
14394;SDS011;7282;49.204;10.652;2022-10-23T07:48:45;6.70;;;6.10;;
14394;SDS011;7282;49.204;10.652;2022-10-23T07:51:13;5.90;;;5.40;;
14394;SDS011;7282;49.204;10.652;2022-10-23T07:53:41;7.03;;;6.13;;
14394;SDS011;7282;49.204;10.652;2022-10-23T07:56:11;6.33;;;5.73;;
14394;SDS011;7282;49.204;10.652;2022-10-23T07:58:39;6.73;;;6.10;;
14394;SDS011;7282;49.204;10.652;2022-10-23T08:01:12;6.10;;;5.37;;
14394;SDS011;7282;49.204;10.652;2022-10-23T08:03:34;6.40;;;5.43;;
14394;SDS011;7282;49.204;10.652;2022-10-23T08:06:02;5.87;;;5.37;;
14394;SDS011;7282;49.204;10.652;2022-10-23T08:08:29;5.60;;;5.07;;
14394;SDS011;7282;49.204;10.652;2022-10-23T08:10:56;5.97;;;5.43;;
14394;SDS011;7282;49.204;10.652;2022-10-23T08:13:23;5.50;;;4.83;;
14394;SDS011;7282;49.204;10.652;2022-10-23T08:15:50;5.57;;;5.07;;
14394;SDS011;7282;49.204;10.652;2022-10-23T08:18:18;5.60;;;4.70;;
14394;SDS011;7282;49.204;10.652;2022-10-23T08:20:45;5.37;;;4.87;;
14394;SDS011;7282;49.204;10.652;2022-10-23T08:23:13;5.07;;;4.67;;
14394;SDS011;7282;49.204;10.652;2022-10-23T08:25:41;5.47;;;4.97;;
14394;SDS011;7282;49.204;10.652;2022-10-23T08:28:08;5.13;;;4.63;;
14394;SDS011;7282;49.204;10.652;2022-10-23T08:30:35;4.57;;;4.13;;
14394;SDS011;7282;49.204;10.652;2022-10-23T08:33:03;5.00;;;4.60;;
14394;SDS011;7282;49.204;10.652;2022-10-23T08:35:30;5.20;;;4.70;;
14394;SDS011;7282;49.204;10.652;2022-10-23T08:37:58;4.93;;;4.53;;
14394;SDS011;7282;49.204;10.652;2022-10-23T08:40:25;5.30;;;4.80;;
14394;SDS011;7282;49.204;10.652;2022-10-23T08:43:00;5.00;;;4.40;;
14394;SDS011;7282;49.204;10.652;2022-10-23T08:45:32;4.43;;;4.03;;
14394;SDS011;7282;49.204;10.652;2022-10-23T08:48:00;5.30;;;4.30;;
14394;SDS011;7282;49.204;10.652;2022-10-23T08:50:44;4.80;;;4.40;;
14394;SDS011;7282;49.204;10.652;2022-10-23T08:55:52;5.20;;;4.53;;
14394;SDS011;7282;49.204;10.652;2022-10-23T08:58:18;5.00;;;4.13;;
14394;SDS011;7282;49.204;10.652;2022-10-23T09:00:46;5.00;;;4.50;;
14394;SDS011;7282;49.204;10.652;2022-10-23T09:03:13;6.53;;;4.50;;
14394;SDS011;7282;49.204;10.652;2022-10-23T09:11:00;4.97;;;4.50;;
14394;SDS011;7282;49.204;10.652;2022-10-23T09:16:26;5.27;;;4.77;;
14394;SDS011;7282;49.204;10.652;2022-10-23T09:18:52;5.70;;;5.00;;
14394;SDS011;7282;49.204;10.652;2022-10-23T09:21:19;5.43;;;4.50;;
14394;SDS011;7282;49.204;10.652;2022-10-23T09:23:46;5.67;;;4.77;;
14394;SDS011;7282;49.204;10.652;2022-10-23T09:26:14;5.97;;;4.37;;
14394;SDS011;7282;49.204;10.652;2022-10-23T09:28:46;4.93;;;4.40;;
14394;SDS011;7282;49.204;10.652;2022-10-23T09:31:13;4.60;;;4.20;;
14394;SDS011;7282;49.204;10.652;2022-10-23T09:33:40;4.97;;;4.57;;
14394;SDS011;7282;49.204;10.652;2022-10-23T09:36:14;5.27;;;4.80;;
14394;SDS011;7282;49.204;10.652;2022-10-23T09:38:47;4.30;;;3.90;;
14394;SDS011;7282;49.204;10.652;2022-10-23T09:41:17;4.63;;;4.20;;
14394;SDS011;7282;49.204;10.652;2022-10-23T09:43:43;4.50;;;4.10;;
14394;SDS011;7282;49.204;10.652;2022-10-23T09:46:10;4.63;;;4.23;;
14394;SDS011;7282;49.204;10.652;2022-10-23T09:48:37;4.80;;;4.00;;
14394;SDS011;7282;49.204;10.652;2022-10-23T09:51:14;4.50;;;4.10;;
14394;SDS011;7282;49.204;10.652;2022-10-23T09:53:52;4.13;;;3.73;;
14394;SDS011;7282;49.204;10.652;2022-10-23T09:56:23;5.77;;;4.40;;
14394;SDS011;7282;49.204;10.652;2022-10-23T09:58:53;4.57;;;4.07;;
14394;SDS011;7282;49.204;10.652;2022-10-23T10:01:26;4.10;;;3.70;;
14394;SDS011;7282;49.204;10.652;2022-10-23T10:03:56;5.00;;;3.83;;
14394;SDS011;7282;49.204;10.652;2022-10-23T10:08:53;4.83;;;3.70;;
14394;SDS011;7282;49.204;10.652;2022-10-23T10:11:23;5.33;;;3.67;;
14394;SDS011;7282;49.204;10.652;2022-10-23T10:13:53;3.97;;;3.43;;
14394;SDS011;7282;49.204;10.652;2022-10-23T10:19:16;3.87;;;3.00;;
14394;SDS011;7282;49.204;10.652;2022-10-23T10:21:46;4.10;;;3.77;;
14394;SDS011;7282;49.204;10.652;2022-10-23T10:26:51;4.00;;;3.07;;
14394;SDS011;7282;49.204;10.652;2022-10-23T10:29:22;3.63;;;3.33;;
14394;SDS011;7282;49.204;10.652;2022-10-23T10:31:54;4.33;;;3.43;;
14394;SDS011;7282;49.204;10.652;2022-10-23T10:34:22;3.53;;;3.23;;
14394;SDS011;7282;49.204;10.652;2022-10-23T10:39:24;4.33;;;3.23;;
14394;SDS011;7282;49.204;10.652;2022-10-23T10:42:18;3.60;;;3.30;;
14394;SDS011;7282;49.204;10.652;2022-10-23T10:44:40;3.53;;;3.23;;
14394;SDS011;7282;49.204;10.652;2022-10-23T10:46:58;3.60;;;3.30;;
14394;SDS011;7282;49.204;10.652;2022-10-23T10:49:31;3.80;;;3.47;;
14394;SDS011;7282;49.204;10.652;2022-10-23T10:52:09;3.70;;;3.30;;
14394;SDS011;7282;49.204;10.652;2022-10-23T10:54:32;3.43;;;3.13;;
14394;SDS011;7282;49.204;10.652;2022-10-23T10:56:57;3.93;;;3.37;;
14394;SDS011;7282;49.204;10.652;2022-10-23T10:59:26;3.30;;;3.00;;
14394;SDS011;7282;49.204;10.652;2022-10-23T11:04:51;3.23;;;2.93;;
14394;SDS011;7282;49.204;10.652;2022-10-23T11:07:15;3.10;;;2.80;;
14394;SDS011;7282;49.204;10.652;2022-10-23T11:09:42;3.47;;;3.17;;
14394;SDS011;7282;49.204;10.652;2022-10-23T11:12:17;3.40;;;3.10;;
14394;SDS011;7282;49.204;10.652;2022-10-23T11:14:44;3.60;;;3.30;;
14394;SDS011;7282;49.204;10.652;2022-10-23T11:17:17;3.10;;;2.80;;
14394;SDS011;7282;49.204;10.652;2022-10-23T11:19:46;3.00;;;2.80;;
14394;SDS011;7282;49.204;10.652;2022-10-23T11:27:48;3.53;;;2.70;;
14394;SDS011;7282;49.204;10.652;2022-10-23T11:30:18;3.67;;;2.53;;
14394;SDS011;7282;49.204;10.652;2022-10-23T11:40:46;2.80;;;2.40;;
14394;SDS011;7282;49.204;10.652;2022-10-23T11:43:24;2.97;;;2.67;;
14394;SDS011;7282;49.204;10.652;2022-10-23T11:45:42;2.67;;;2.47;;
14394;SDS011;7282;49.204;10.652;2022-10-23T11:48:19;2.40;;;2.20;;
14394;SDS011;7282;49.204;10.652;2022-10-23T11:58:40;2.40;;;2.20;;
14394;SDS011;7282;49.204;10.652;2022-10-23T12:03:53;2.43;;;2.20;;
14394;SDS011;7282;49.204;10.652;2022-10-23T12:06:25;2.30;;;2.10;;
14394;SDS011;7282;49.204;10.652;2022-10-23T12:08:53;2.30;;;2.10;;
14394;SDS011;7282;49.204;10.652;2022-10-23T12:11:28;2.50;;;2.30;;
14394;SDS011;7282;49.204;10.652;2022-10-23T12:13:55;2.10;;;2.00;;
14394;SDS011;7282;49.204;10.652;2022-10-23T12:16:21;2.60;;;2.40;;
14394;SDS011;7282;49.204;10.652;2022-10-23T12:18:51;2.27;;;1.93;;
14394;SDS011;7282;49.204;10.652;2022-10-23T12:21:19;2.10;;;2.00;;
14394;SDS011;7282;49.204;10.652;2022-10-23T12:23:49;2.07;;;1.90;;
14394;SDS011;7282;49.204;10.652;2022-10-23T12:27:00;2.20;;;2.00;;
14394;SDS011;7282;49.204;10.652;2022-10-23T12:33:52;1.90;;;1.80;;
14394;SDS011;7282;49.204;10.652;2022-10-23T12:36:23;2.00;;;1.80;;
14394;SDS011;7282;49.204;10.652;2022-10-23T12:38:49;3.47;;;1.83;;
14394;SDS011;7282;49.204;10.652;2022-10-23T12:41:18;2.00;;;1.70;;
14394;SDS011;7282;49.204;10.652;2022-10-23T12:43:49;2.10;;;1.90;;
14394;SDS011;7282;49.204;10.652;2022-10-23T12:48:49;1.77;;;1.67;;
14394;SDS011;7282;49.204;10.652;2022-10-23T12:51:21;1.83;;;1.73;;
14394;SDS011;7282;49.204;10.652;2022-10-23T12:53:48;2.03;;;1.90;;
14394;SDS011;7282;49.204;10.652;2022-10-23T12:56:15;2.00;;;1.90;;
14394;SDS011;7282;49.204;10.652;2022-10-23T12:58:49;1.73;;;1.63;;
14394;SDS011;7282;49.204;10.652;2022-10-23T13:01:24;2.60;;;2.00;;
14394;SDS011;7282;49.204;10.652;2022-10-23T13:03:51;1.60;;;1.50;;
14394;SDS011;7282;49.204;10.652;2022-10-23T13:06:19;2.03;;;1.93;;
14394;SDS011;7282;49.204;10.652;2022-10-23T13:08:47;1.97;;;1.80;;
14394;SDS011;7282;49.204;10.652;2022-10-23T13:11:15;1.90;;;1.80;;
14394;SDS011;7282;49.204;10.652;2022-10-23T13:13:43;2.13;;;1.90;;
14394;SDS011;7282;49.204;10.652;2022-10-23T13:16:13;1.67;;;1.57;;
14394;SDS011;7282;49.204;10.652;2022-10-23T13:18:40;1.87;;;1.77;;
14394;SDS011;7282;49.204;10.652;2022-10-23T13:21:13;1.60;;;1.50;;
14394;SDS011;7282;49.204;10.652;2022-10-23T13:23:36;2.03;;;1.93;;
14394;SDS011;7282;49.204;10.652;2022-10-23T13:26:05;1.80;;;1.70;;
14394;SDS011;7282;49.204;10.652;2022-10-23T13:28:43;2.33;;;1.73;;
14394;SDS011;7282;49.204;10.652;2022-10-23T13:33:40;2.17;;;1.70;;
14394;SDS011;7282;49.204;10.652;2022-10-23T13:38:58;1.70;;;1.60;;
14394;SDS011;7282;49.204;10.652;2022-10-23T13:41:15;1.67;;;1.50;;
14394;SDS011;7282;49.204;10.652;2022-10-23T13:43:42;2.27;;;1.90;;
14394;SDS011;7282;49.204;10.652;2022-10-23T13:46:20;1.90;;;1.80;;
14394;SDS011;7282;49.204;10.652;2022-10-23T13:48:43;3.10;;;2.13;;
14394;SDS011;7282;49.204;10.652;2022-10-23T13:51:24;2.77;;;1.80;;
14394;SDS011;7282;49.204;10.652;2022-10-23T13:53:48;2.60;;;1.67;;
14394;SDS011;7282;49.204;10.652;2022-10-23T13:56:16;3.10;;;2.00;;
14394;SDS011;7282;49.204;10.652;2022-10-23T13:58:43;2.43;;;1.70;;
14394;SDS011;7282;49.204;10.652;2022-10-23T14:01:19;2.50;;;2.10;;
14394;SDS011;7282;49.204;10.652;2022-10-23T14:03:44;2.60;;;1.73;;
14394;SDS011;7282;49.204;10.652;2022-10-23T14:06:12;2.70;;;1.90;;
14394;SDS011;7282;49.204;10.652;2022-10-23T14:08:38;1.80;;;1.70;;
14394;SDS011;7282;49.204;10.652;2022-10-23T14:11:05;1.90;;;1.70;;
14394;SDS011;7282;49.204;10.652;2022-10-23T14:13:32;3.47;;;1.90;;
14394;SDS011;7282;49.204;10.652;2022-10-23T14:15:58;2.10;;;1.90;;
14394;SDS011;7282;49.204;10.652;2022-10-23T14:18:25;1.90;;;1.70;;
14394;SDS011;7282;49.204;10.652;2022-10-23T14:20:52;2.03;;;1.80;;
14394;SDS011;7282;49.204;10.652;2022-10-23T14:23:18;1.90;;;1.80;;
14394;SDS011;7282;49.204;10.652;2022-10-23T14:25:45;2.03;;;1.83;;
14394;SDS011;7282;49.204;10.652;2022-10-23T14:28:12;2.20;;;1.87;;
14394;SDS011;7282;49.204;10.652;2022-10-23T14:30:38;2.33;;;2.13;;
14394;SDS011;7282;49.204;10.652;2022-10-23T14:33:05;2.20;;;1.70;;
14394;SDS011;7282;49.204;10.652;2022-10-23T14:35:32;2.17;;;1.90;;
14394;SDS011;7282;49.204;10.652;2022-10-23T14:37:58;1.93;;;1.83;;
14394;SDS011;7282;49.204;10.652;2022-10-23T14:40:25;2.57;;;2.03;;
14394;SDS011;7282;49.204;10.652;2022-10-23T14:42:52;2.03;;;1.90;;
14394;SDS011;7282;49.204;10.652;2022-10-23T14:45:18;3.17;;;2.23;;
14394;SDS011;7282;49.204;10.652;2022-10-23T14:47:45;1.97;;;1.60;;
14394;SDS011;7282;49.204;10.652;2022-10-23T14:50:12;2.00;;;1.90;;
14394;SDS011;7282;49.204;10.652;2022-10-23T14:52:39;1.90;;;1.80;;
14394;SDS011;7282;49.204;10.652;2022-10-23T14:55:06;2.83;;;1.90;;
14394;SDS011;7282;49.204;10.652;2022-10-23T14:57:32;2.27;;;2.07;;
14394;SDS011;7282;49.204;10.652;2022-10-23T14:59:59;2.40;;;2.07;;
14394;SDS011;7282;49.204;10.652;2022-10-23T15:02:26;2.30;;;1.80;;
14394;SDS011;7282;49.204;10.652;2022-10-23T15:04:52;2.70;;;2.00;;
14394;SDS011;7282;49.204;10.652;2022-10-23T15:07:19;2.70;;;2.10;;
14394;SDS011;7282;49.204;10.652;2022-10-23T15:09:46;3.17;;;2.10;;
14394;SDS011;7282;49.204;10.652;2022-10-23T15:12:12;1.93;;;1.83;;
14394;SDS011;7282;49.204;10.652;2022-10-23T15:14:39;3.87;;;2.00;;
14394;SDS011;7282;49.204;10.652;2022-10-23T15:17:06;2.00;;;1.90;;
14394;SDS011;7282;49.204;10.652;2022-10-23T15:19:32;2.27;;;1.93;;
14394;SDS011;7282;49.204;10.652;2022-10-23T15:21:59;2.10;;;1.90;;
14394;SDS011;7282;49.204;10.652;2022-10-23T15:24:26;2.17;;;1.73;;
14394;SDS011;7282;49.204;10.652;2022-10-23T15:26:53;2.10;;;1.90;;
14394;SDS011;7282;49.204;10.652;2022-10-23T15:29:19;2.10;;;2.00;;
14394;SDS011;7282;49.204;10.652;2022-10-23T15:31:47;2.30;;;2.10;;
14394;SDS011;7282;49.204;10.652;2022-10-23T15:34:16;2.33;;;2.13;;
14394;SDS011;7282;49.204;10.652;2022-10-23T15:36:43;2.30;;;2.10;;
14394;SDS011;7282;49.204;10.652;2022-10-23T15:39:10;2.93;;;2.10;;
14394;SDS011;7282;49.204;10.652;2022-10-23T15:41:38;2.20;;;2.00;;
14394;SDS011;7282;49.204;10.652;2022-10-23T15:44:05;3.97;;;2.60;;
14394;SDS011;7282;49.204;10.652;2022-10-23T15:46:37;2.83;;;2.63;;
14394;SDS011;7282;49.204;10.652;2022-10-23T15:49:01;2.80;;;2.60;;
14394;SDS011;7282;49.204;10.652;2022-10-23T15:51:28;3.10;;;2.60;;
14394;SDS011;7282;49.204;10.652;2022-10-23T15:53:54;2.63;;;2.43;;
14394;SDS011;7282;49.204;10.652;2022-10-23T15:56:24;3.03;;;2.80;;
14394;SDS011;7282;49.204;10.652;2022-10-23T15:58:51;2.83;;;2.50;;
14394;SDS011;7282;49.204;10.652;2022-10-23T16:01:18;3.07;;;2.60;;
14394;SDS011;7282;49.204;10.652;2022-10-23T16:03:44;2.63;;;2.43;;
14394;SDS011;7282;49.204;10.652;2022-10-23T16:06:12;2.90;;;2.60;;